createdAt,value
2023-04-01T00:01:07.193Z,9.4
2023-04-01T00:11:09.636Z,9.4
2023-04-01T00:21:11.928Z,9.4
2023-04-01T00:31:13.945Z,9.3
2023-04-01T00:41:16.136Z,9.1
2023-04-01T00:51:18.681Z,9
2023-04-01T01:01:21.152Z,9
2023-04-01T01:11:23.570Z,9
2023-04-01T01:21:25.270Z,9
2023-04-01T01:31:27.606Z,9
2023-04-01T01:41:29.678Z,8.9
2023-04-01T01:51:32.147Z,8.9
2023-04-01T02:01:33.977Z,8.9
2023-04-01T02:11:36.675Z,8.8
2023-04-01T02:21:39.301Z,8.9
2023-04-01T02:31:41.677Z,8.8
2023-04-01T02:51:45.855Z,8.7
2023-04-01T03:01:58.169Z,8.7
2023-04-01T03:12:00.110Z,8.7
2023-04-01T03:22:02.316Z,8.8
2023-04-01T03:32:04.096Z,8.8
2023-04-01T03:42:06.560Z,8.7
2023-04-01T03:52:08.524Z,8.6
2023-04-01T04:32:17.732Z,8.6
2023-04-01T04:42:20.313Z,8.6
2023-04-01T04:52:22.425Z,8.7
2023-04-01T05:02:24.407Z,8.7
2023-04-01T05:22:27.779Z,8.7
2023-04-01T05:32:30.498Z,8.7
2023-04-01T05:42:32.356Z,8.8
2023-04-01T06:12:38.502Z,8.8
2023-04-01T06:22:40.647Z,8.9
2023-04-01T06:32:42.588Z,9
2023-04-01T06:42:44.338Z,9
2023-04-01T06:52:46.949Z,8.9
2023-04-01T07:02:49.370Z,8.9
2023-04-01T07:12:51.432Z,8.9
2023-04-01T07:22:53.741Z,8.9
2023-04-01T07:32:56.107Z,8.9
2023-04-01T07:42:58.327Z,8.9
2023-04-01T07:53:00.801Z,8.9
2023-04-01T08:03:03.058Z,8.9
2023-04-01T08:13:04.773Z,9.1
2023-04-01T08:23:06.626Z,9.1
2023-04-01T08:33:09.132Z,9.1
2023-04-01T08:53:12.850Z,9.1
2023-04-01T09:03:15.225Z,9.2
2023-04-01T09:13:17.649Z,9.2
2023-04-01T09:23:19.634Z,9.3
2023-04-01T09:33:22.161Z,9.2
2023-04-01T09:43:24.488Z,9.3
2023-04-01T09:53:26.773Z,9.3
2023-04-01T10:03:29.772Z,9.4
2023-04-01T10:13:30.855Z,9.4
2023-04-01T10:23:33.087Z,9.7
2023-04-01T10:33:34.859Z,9.6
2023-04-01T10:43:37.533Z,9.6
2023-04-01T10:53:39.864Z,9.8
2023-04-01T11:03:41.922Z,9.8
2023-04-01T11:13:44.386Z,9.8
2023-04-01T11:23:52.165Z,9.8
2023-04-01T11:33:49.485Z,9.9
2023-04-01T11:43:51.889Z,9.9
2023-04-01T11:53:53.864Z,10.1
2023-04-01T12:03:56.372Z,10.2
2023-04-01T12:13:58.178Z,10
2023-04-01T12:23:59.944Z,9.9
2023-04-01T12:34:02.591Z,9.9
2023-04-01T12:44:05.122Z,9.9
2023-04-01T12:54:06.931Z,10
2023-04-01T13:04:08.794Z,10.1
2023-04-01T13:14:15.885Z,10.2
2023-04-01T13:24:13.287Z,10.2
2023-04-01T13:44:18.178Z,10.1
2023-04-01T13:54:20.231Z,10.1
2023-04-01T14:04:22.788Z,10.1
2023-04-01T14:24:27.251Z,10
2023-04-01T14:34:28.944Z,10
2023-04-01T14:44:31.300Z,10
2023-04-01T15:04:35.335Z,9.9
2023-04-01T15:14:37.250Z,9.9
2023-04-01T15:34:41.200Z,10
2023-04-01T15:44:42.977Z,10
2023-04-01T15:54:45.003Z,10
2023-04-01T16:04:47.601Z,10
2023-04-01T16:14:49.785Z,10
2023-04-01T16:24:52.055Z,10
2023-04-01T16:34:54.281Z,10
2023-04-01T16:44:57.715Z,10
2023-04-01T16:54:58.512Z,9.9
2023-04-01T17:05:00.371Z,9.9
2023-04-01T17:15:02.569Z,9.9
2023-04-01T17:25:04.104Z,9.9
2023-04-01T17:35:05.990Z,10
2023-04-01T17:45:07.967Z,9.9
2023-04-01T17:55:10.230Z,10
2023-04-01T18:05:12.911Z,10
2023-04-01T18:15:14.950Z,9.9
2023-04-01T18:25:16.665Z,9.8
2023-04-01T18:45:21.487Z,9.4
2023-04-01T18:55:23.252Z,9.3
2023-04-01T19:05:25.813Z,9.2
2023-04-01T19:15:28.478Z,9
2023-04-01T19:25:30.565Z,8.9
2023-04-01T19:35:32.871Z,8.7
2023-04-01T19:45:35.261Z,8.7
2023-04-01T19:55:37.255Z,8.4
2023-04-01T20:05:39.502Z,8.2
2023-04-01T20:15:41.291Z,8.1
2023-04-01T20:25:43.595Z,8
2023-04-01T20:35:46.289Z,7.9
2023-04-01T20:45:48.619Z,7.5
2023-04-01T20:55:50.699Z,7.4
2023-04-01T21:05:52.901Z,7.1
2023-04-01T21:15:54.612Z,7
2023-04-01T21:25:56.849Z,7
2023-04-01T21:35:59.279Z,7
2023-04-01T21:46:01.061Z,6.8
2023-04-01T21:56:03.629Z,6.8
2023-04-01T22:06:05.480Z,6.6
2023-04-01T22:16:07.369Z,6.5
2023-04-01T22:26:09.551Z,6.4
2023-04-01T22:46:13.970Z,6.2
2023-04-01T22:56:15.969Z,6.1
2023-04-01T23:06:17.786Z,6.1
2023-04-01T23:16:19.773Z,6
2023-04-01T23:26:22.142Z,5.8
2023-04-01T23:36:24.473Z,5.8
2023-04-01T23:46:26.987Z,5.7
2023-04-01T23:56:28.853Z,5.6
